createdAt,value
2022-12-22T00:02:07.000Z,0.40
2022-12-22T00:04:52.385Z,0.60
2022-12-22T00:07:37.501Z,0.50
2022-12-22T00:10:23.314Z,0.40
2022-12-22T00:13:08.840Z,0.53
2022-12-22T00:15:55.721Z,0.83
2022-12-22T00:18:41.290Z,0.40
2022-12-22T00:21:48.215Z,0.60
2022-12-22T00:24:33.771Z,0.50
2022-12-22T00:27:19.189Z,0.60
2022-12-22T00:30:04.396Z,0.80
2022-12-22T00:32:54.504Z,0.50
2022-12-22T00:35:43.876Z,0.77
2022-12-22T00:38:38.934Z,0.50
2022-12-22T00:41:25.251Z,1.00
2022-12-22T00:44:10.422Z,0.70
2022-12-22T00:46:58.796Z,0.80
2022-12-22T00:49:46.729Z,0.50
2022-12-22T00:52:32.808Z,0.30
2022-12-22T00:55:18.790Z,0.53
2022-12-22T00:58:04.923Z,0.50
2022-12-22T01:00:50.146Z,0.47
2022-12-22T01:03:35.560Z,0.30
2022-12-22T01:06:21.986Z,0.30
2022-12-22T01:09:07.306Z,1.00
2022-12-22T01:12:11.212Z,0.57
2022-12-22T01:15:15.383Z,0.30
2022-12-22T01:18:00.917Z,0.40
2022-12-22T01:20:46.606Z,0.30
2022-12-22T01:23:31.977Z,0.20
2022-12-22T01:26:17.327Z,0.10
2022-12-22T01:29:02.752Z,0.20
2022-12-22T01:31:51.315Z,0.20
2022-12-22T01:34:36.565Z,0.10
2022-12-22T01:37:22.022Z,0.10
2022-12-22T01:40:07.288Z,0.27
2022-12-22T01:42:53.528Z,0.10
2022-12-22T01:45:49.652Z,0.10
2022-12-22T01:48:41.810Z,0.10
2022-12-22T01:51:31.586Z,0.20
2022-12-22T01:54:17.289Z,0.40
2022-12-22T01:57:04.617Z,0.10
2022-12-22T01:59:50.090Z,0.23
2022-12-22T02:02:54.606Z,0.20
2022-12-22T02:05:39.957Z,0.40
2022-12-22T02:08:46.658Z,0.20
2022-12-22T02:11:48.818Z,0.20
2022-12-22T02:14:46.279Z,0.20
2022-12-22T02:17:38.893Z,0.27
2022-12-22T02:21:17.995Z,0.37
2022-12-22T02:24:24.525Z,0.20
2022-12-22T02:27:13.559Z,0.20
2022-12-22T02:30:05.428Z,0.40
2022-12-22T02:33:10.256Z,0.30
2022-12-22T02:36:01.740Z,0.30
2022-12-22T02:38:46.917Z,0.20
2022-12-22T02:42:16.864Z,0.10
2022-12-22T02:45:36.241Z,0.10
2022-12-22T02:48:29.136Z,0.20
2022-12-22T02:51:23.759Z,0.33
2022-12-22T02:54:11.710Z,0.10
2022-12-22T02:56:58.842Z,0.10
2022-12-22T02:59:44.140Z,0.10
2022-12-22T03:02:30.825Z,0.10
2022-12-22T03:05:16.243Z,0.30
2022-12-22T03:08:07.691Z,0.10
2022-12-22T03:10:54.616Z,0.10
2022-12-22T03:13:40.302Z,0.10
2022-12-22T03:16:25.816Z,0.20
2022-12-22T03:19:11.252Z,0.10
2022-12-22T03:21:56.623Z,0.10
2022-12-22T03:24:42.231Z,0.10
2022-12-22T03:27:09.216Z,0.50
2022-12-22T03:29:35.988Z,0.30
2022-12-22T03:32:02.967Z,0.20
2022-12-22T03:34:48.289Z,0.20
2022-12-22T03:37:15.067Z,0.20
2022-12-22T03:39:41.795Z,0.30
2022-12-22T03:42:30.487Z,0.30
2022-12-22T03:45:34.449Z,0.30
2022-12-22T03:48:01.230Z,0.20
2022-12-22T03:50:28.037Z,0.20
2022-12-22T03:52:54.780Z,0.30
2022-12-22T03:55:21.484Z,0.20
2022-12-22T03:57:48.203Z,0.20
2022-12-22T04:00:15.599Z,0.30
2022-12-22T04:02:42.515Z,0.30
2022-12-22T04:05:09.840Z,0.30
2022-12-22T04:07:36.647Z,0.40
2022-12-22T04:10:22.693Z,0.50
2022-12-22T04:12:55.351Z,0.30
2022-12-22T04:15:27.893Z,0.20
2022-12-22T04:17:54.731Z,0.10
2022-12-22T04:20:23.751Z,0.20
2022-12-22T04:22:50.523Z,0.10
2022-12-22T04:25:17.342Z,0.30
2022-12-22T04:27:44.195Z,0.10
2022-12-22T04:30:11.931Z,0.13
2022-12-22T04:32:38.815Z,1.20
2022-12-22T04:35:06.636Z,1.13
2022-12-22T04:37:33.336Z,1.40
2022-12-22T04:40:00.216Z,0.67
2022-12-22T04:42:27.039Z,0.30
2022-12-22T04:44:53.844Z,0.10
2022-12-22T04:47:20.645Z,0.20
2022-12-22T04:49:47.450Z,0.27
2022-12-22T04:52:14.191Z,0.20
2022-12-22T04:54:40.967Z,0.13
2022-12-22T04:57:07.762Z,0.10
2022-12-22T04:59:34.620Z,0.10
2022-12-22T05:02:01.493Z,0.10
2022-12-22T05:04:46.726Z,0.20
2022-12-22T05:07:13.563Z,0.13
2022-12-22T05:09:40.405Z,0.10
2022-12-22T05:12:27.199Z,0.20
2022-12-22T05:14:53.997Z,0.10
2022-12-22T05:17:20.933Z,0.20
2022-12-22T05:19:47.743Z,0.10
2022-12-22T05:22:14.542Z,0.20
2022-12-22T05:24:41.228Z,0.10
2022-12-22T05:27:08.096Z,0.20
2022-12-22T05:29:34.883Z,0.10
2022-12-22T05:32:01.629Z,0.20
2022-12-22T05:34:28.542Z,0.10
2022-12-22T05:36:55.684Z,0.10
2022-12-22T05:39:22.517Z,0.20
2022-12-22T05:41:49.327Z,0.10
2022-12-22T05:44:16.045Z,0.10
2022-12-22T05:46:43.009Z,0.10
2022-12-22T05:51:55.917Z,0.20
2022-12-22T05:54:22.696Z,0.20
2022-12-22T05:56:49.440Z,0.10
2022-12-22T05:59:16.244Z,0.10
2022-12-22T06:01:43.051Z,0.17
2022-12-22T06:04:09.926Z,0.13
2022-12-22T06:06:36.762Z,0.30
2022-12-22T06:09:03.676Z,0.20
2022-12-22T06:11:30.484Z,0.10
2022-12-22T06:13:57.247Z,0.20
2022-12-22T06:16:24.117Z,0.20
2022-12-22T06:18:50.899Z,0.20
2022-12-22T06:21:17.656Z,0.23
2022-12-22T06:24:04.569Z,0.10
2022-12-22T06:26:31.477Z,0.20
2022-12-22T06:28:58.181Z,0.30
2022-12-22T06:31:25.091Z,0.10
2022-12-22T06:33:51.899Z,0.20
2022-12-22T06:36:18.662Z,0.30
2022-12-22T06:38:45.432Z,0.20
2022-12-22T06:41:12.243Z,0.30
2022-12-22T06:43:38.991Z,0.27
2022-12-22T06:46:05.869Z,0.20
2022-12-22T06:48:32.642Z,0.20
2022-12-22T06:51:00.026Z,0.10
2022-12-22T06:53:27.244Z,0.20
2022-12-22T06:55:53.980Z,0.20
2022-12-22T06:58:20.740Z,0.50
2022-12-22T07:00:49.794Z,0.30
2022-12-22T07:03:16.837Z,0.13
2022-12-22T07:05:43.966Z,0.10
2022-12-22T07:08:10.699Z,0.10
2022-12-22T07:10:58.899Z,0.20
2022-12-22T07:13:28.510Z,0.20
2022-12-22T07:16:00.605Z,0.20
2022-12-22T07:18:33.171Z,0.20
2022-12-22T07:21:01.259Z,0.50
2022-12-22T07:23:29.081Z,0.20
2022-12-22T07:25:55.864Z,0.20
2022-12-22T07:28:23.864Z,0.33
2022-12-22T07:30:52.247Z,0.17
2022-12-22T07:33:19.519Z,0.23
2022-12-22T07:35:46.766Z,0.30
2022-12-22T07:38:13.707Z,0.30
2022-12-22T07:40:42.482Z,0.30
2022-12-22T07:43:09.847Z,0.30
2022-12-22T07:45:36.769Z,0.43
2022-12-22T07:51:11.032Z,0.30
2022-12-22T07:53:40.248Z,0.10
2022-12-22T07:56:07.562Z,0.33
2022-12-22T07:58:34.323Z,0.30
2022-12-22T08:01:02.044Z,0.60
2022-12-22T08:03:29.265Z,1.43
2022-12-22T08:05:56.234Z,1.10
2022-12-22T08:08:23.087Z,1.70
2022-12-22T08:10:49.950Z,0.97
2022-12-22T08:13:17.186Z,0.77
2022-12-22T08:15:44.062Z,1.20
2022-12-22T08:18:11.053Z,0.63
2022-12-22T08:20:37.840Z,1.10
2022-12-22T08:23:04.608Z,0.50
2022-12-22T08:25:33.073Z,1.00
2022-12-22T08:28:00.161Z,0.60
2022-12-22T08:30:27.581Z,0.60
2022-12-22T08:32:54.344Z,0.30
2022-12-22T08:35:21.188Z,0.70
2022-12-22T08:37:48.516Z,0.40
2022-12-22T08:40:20.541Z,0.80
2022-12-22T08:42:48.584Z,0.83
2022-12-22T08:45:15.438Z,0.50
2022-12-22T08:47:42.848Z,0.73
2022-12-22T08:50:10.050Z,0.50
2022-12-22T08:52:37.172Z,0.80
2022-12-22T08:55:04.248Z,0.80
2022-12-22T08:57:31.112Z,0.90
2022-12-22T08:59:57.962Z,1.60
2022-12-22T09:02:44.511Z,0.60
2022-12-22T09:05:11.464Z,0.97
2022-12-22T09:07:38.239Z,0.70
2022-12-22T09:10:24.275Z,0.50
2022-12-22T09:13:29.188Z,0.70
2022-12-22T09:15:55.966Z,1.63
2022-12-22T09:21:07.358Z,0.70
2022-12-22T09:23:34.077Z,0.73
2022-12-22T09:26:06.298Z,0.70
2022-12-22T09:28:33.087Z,0.60
2022-12-22T09:30:59.811Z,0.50
2022-12-22T09:36:31.782Z,0.40
2022-12-22T09:38:58.532Z,0.60
2022-12-22T09:41:47.592Z,0.50
2022-12-22T09:44:38.894Z,0.60
2022-12-22T09:47:43.209Z,0.60
2022-12-22T09:50:17.167Z,0.80
2022-12-22T09:52:48.935Z,1.47
2022-12-22T09:55:24.949Z,0.50
2022-12-22T09:57:55.027Z,0.77
2022-12-22T10:00:42.717Z,1.03
2022-12-22T10:03:14.224Z,1.47
2022-12-22T10:05:54.027Z,0.67
2022-12-22T10:08:34.466Z,0.90
2022-12-22T10:11:01.655Z,0.68
2022-12-22T10:13:28.554Z,0.60
2022-12-22T10:15:56.036Z,0.73
2022-12-22T10:18:25.765Z,0.53
2022-12-22T10:21:13.190Z,0.90
2022-12-22T10:23:48.006Z,0.30
2022-12-22T10:26:29.256Z,0.40
2022-12-22T10:29:05.992Z,0.87
2022-12-22T10:31:40.001Z,0.40
2022-12-22T10:34:15.895Z,0.50
2022-12-22T10:36:48.524Z,0.70
2022-12-22T10:39:36.545Z,0.40
2022-12-22T10:42:14.718Z,0.50
2022-12-22T10:44:48.000Z,0.70
2022-12-22T10:47:19.572Z,0.50
2022-12-22T10:49:49.853Z,0.47
2022-12-22T10:52:29.684Z,0.93
2022-12-22T10:55:19.715Z,0.93
2022-12-22T10:57:46.637Z,0.40
2022-12-22T11:00:51.057Z,0.70
2022-12-22T11:03:37.677Z,0.60
2022-12-22T11:06:23.308Z,0.60
2022-12-22T11:08:51.793Z,0.97
2022-12-22T11:11:53.179Z,0.50
2022-12-22T11:14:27.907Z,0.57
2022-12-22T11:17:36.103Z,0.40
2022-12-22T11:20:19.170Z,0.40
2022-12-22T11:22:58.413Z,0.50
2022-12-22T11:25:41.273Z,0.50
2022-12-22T11:28:57.801Z,0.40
2022-12-22T11:31:49.782Z,0.43
2022-12-22T11:34:45.558Z,0.55
2022-12-22T11:37:36.416Z,0.40
2022-12-22T11:40:32.415Z,0.90
2022-12-22T11:43:11.232Z,1.07
2022-12-22T11:45:53.037Z,0.60
2022-12-22T11:48:46.001Z,0.80
2022-12-22T11:52:02.093Z,0.70
2022-12-22T11:54:50.622Z,0.70
2022-12-22T11:57:44.274Z,0.80
2022-12-22T12:00:19.294Z,0.60
2022-12-22T12:03:27.049Z,0.90
2022-12-22T12:06:28.098Z,0.70
2022-12-22T12:09:27.220Z,0.53
2022-12-22T12:12:14.775Z,0.67
2022-12-22T12:15:09.648Z,0.60
2022-12-22T12:17:51.538Z,0.50
2022-12-22T12:20:46.989Z,1.00
2022-12-22T12:23:43.027Z,0.80
2022-12-22T12:27:00.883Z,0.83
2022-12-22T12:30:13.437Z,1.00
2022-12-22T12:33:43.768Z,0.80
2022-12-22T12:36:29.201Z,1.10
2022-12-22T12:42:48.017Z,0.60
2022-12-22T12:45:35.043Z,0.87
2022-12-22T12:48:20.639Z,1.03
2022-12-22T12:51:26.247Z,1.33
2022-12-22T12:54:46.540Z,0.57
2022-12-22T12:57:28.409Z,0.93
2022-12-22T13:00:00.028Z,1.03
2022-12-22T13:02:27.043Z,0.70
2022-12-22T13:05:12.185Z,1.83
2022-12-22T13:08:16.726Z,0.90
2022-12-22T13:14:09.675Z,0.77
2022-12-22T13:17:52.259Z,0.70
2022-12-22T13:20:27.186Z,0.70
2022-12-22T13:22:57.115Z,0.70
2022-12-22T13:25:49.869Z,0.50
2022-12-22T13:28:19.004Z,0.82
2022-12-22T13:30:53.448Z,0.37
2022-12-22T13:33:43.828Z,1.30
2022-12-22T13:36:38.074Z,1.35
2022-12-22T13:42:13.083Z,0.60
2022-12-22T13:45:01.107Z,0.87
2022-12-22T13:47:48.387Z,0.90
2022-12-22T13:50:21.508Z,1.53
2022-12-22T13:53:10.204Z,1.40
2022-12-22T13:55:38.207Z,1.00
2022-12-22T13:58:37.176Z,1.30
2022-12-22T14:01:10.174Z,1.52
2022-12-22T14:04:03.604Z,0.70
2022-12-22T14:06:38.090Z,1.50
2022-12-22T14:09:20.180Z,0.90
2022-12-22T14:11:54.893Z,1.23
2022-12-22T14:14:41.648Z,1.13
2022-12-22T14:17:37.038Z,1.35
2022-12-22T14:20:29.028Z,2.00
2022-12-22T14:23:22.696Z,1.53
2022-12-22T14:25:50.854Z,1.50
2022-12-22T14:28:25.573Z,0.90
2022-12-22T14:31:03.910Z,1.27
2022-12-22T14:33:33.821Z,1.90
2022-12-22T14:36:23.808Z,1.70
2022-12-22T14:38:56.064Z,2.37
2022-12-22T14:42:01.724Z,1.77
2022-12-22T14:44:34.312Z,2.53
2022-12-22T14:47:07.311Z,1.57
2022-12-22T14:49:35.647Z,1.63
2022-12-22T14:52:14.289Z,1.73
2022-12-22T14:54:47.255Z,1.67
2022-12-22T14:57:39.801Z,1.53
2022-12-22T15:00:24.537Z,1.53
2022-12-22T15:03:01.118Z,1.97
2022-12-22T15:05:33.005Z,1.33
2022-12-22T15:08:05.884Z,2.20
2022-12-22T15:11:11.569Z,2.30
2022-12-22T15:13:38.837Z,2.60
2022-12-22T15:16:06.103Z,1.70
2022-12-22T15:18:33.002Z,1.57
2022-12-22T15:20:59.837Z,1.67
2022-12-22T15:23:26.659Z,3.20
2022-12-22T15:25:53.553Z,2.60
2022-12-22T15:28:39.229Z,5.27
2022-12-22T15:31:24.546Z,2.60
2022-12-22T15:33:51.380Z,2.50
2022-12-22T15:36:18.171Z,2.57
2022-12-22T15:38:44.958Z,1.73
2022-12-22T15:41:11.925Z,2.13
2022-12-22T15:43:57.753Z,2.10
2022-12-22T15:46:46.755Z,2.47
2022-12-22T15:49:18.236Z,1.67
2022-12-22T15:52:22.781Z,2.23
2022-12-22T15:54:49.824Z,1.90
2022-12-22T15:57:16.575Z,2.00
2022-12-22T15:59:43.444Z,1.43
2022-12-22T16:02:12.963Z,2.10
2022-12-22T16:04:58.365Z,1.67
2022-12-22T16:07:45.054Z,2.07
2022-12-22T16:10:25.769Z,0.90
2022-12-22T16:13:13.917Z,1.80
2022-12-22T16:15:41.353Z,1.70
2022-12-22T16:18:11.835Z,1.70
2022-12-22T16:24:07.432Z,1.50
2022-12-22T16:26:34.403Z,2.13
2022-12-22T16:29:01.279Z,2.23
2022-12-22T16:31:46.597Z,2.27
2022-12-22T16:34:32.950Z,1.73
2022-12-22T16:37:18.560Z,1.50
2022-12-22T16:39:46.393Z,2.17
2022-12-22T16:45:56.548Z,1.53
2022-12-22T16:48:32.400Z,0.97
2022-12-22T16:50:59.580Z,1.10
2022-12-22T16:53:44.979Z,1.43
2022-12-22T16:56:20.344Z,0.90
2022-12-22T16:59:05.914Z,0.60
2022-12-22T17:01:32.973Z,0.90
2022-12-22T17:04:24.447Z,1.10
2022-12-22T17:06:52.839Z,1.77
2022-12-22T17:09:26.098Z,0.93
2022-12-22T17:11:54.339Z,0.60
2022-12-22T17:14:36.988Z,1.23
2022-12-22T17:17:04.088Z,1.63
2022-12-22T17:19:31.005Z,1.00
2022-12-22T17:22:18.160Z,0.67
2022-12-22T17:25:07.078Z,1.00
2022-12-22T17:36:50.299Z,0.93
2022-12-22T17:39:40.384Z,1.20
2022-12-22T17:42:23.855Z,1.00
2022-12-22T17:45:28.702Z,1.13
2022-12-22T17:47:55.516Z,1.83
2022-12-22T17:50:23.165Z,2.67
2022-12-22T17:52:50.323Z,2.20
2022-12-22T17:56:10.895Z,2.07
2022-12-22T17:58:37.741Z,1.23
2022-12-22T18:01:04.511Z,1.40
2022-12-22T18:03:31.460Z,1.23
2022-12-22T18:05:59.509Z,1.87
2022-12-22T18:08:26.355Z,2.33
2022-12-22T18:13:58.678Z,2.20
2022-12-22T18:16:25.972Z,2.10
2022-12-22T18:18:52.767Z,2.60
2022-12-22T18:28:08.384Z,1.60
2022-12-22T18:30:35.320Z,2.10
2022-12-22T18:36:30.787Z,2.10
2022-12-22T18:39:21.643Z,1.73
2022-12-22T18:41:48.895Z,1.97
2022-12-22T18:44:17.486Z,1.80
2022-12-22T18:46:44.882Z,1.80
2022-12-22T18:49:12.543Z,1.60
2022-12-22T18:51:39.402Z,1.30
2022-12-22T18:54:33.371Z,1.27
2022-12-22T18:57:19.910Z,1.17
2022-12-22T18:59:48.205Z,2.60
2022-12-22T19:02:33.678Z,1.47
2022-12-22T19:05:00.621Z,1.60
2022-12-22T19:07:27.328Z,1.57
2022-12-22T19:10:43.283Z,1.60
2022-12-22T19:13:39.432Z,1.70
2022-12-22T19:16:07.391Z,12.53
2022-12-22T19:18:34.266Z,6.03
2022-12-22T19:21:39.431Z,6.40
2022-12-22T19:24:07.292Z,10.47
2022-12-22T19:27:11.814Z,6.37
2022-12-22T19:29:38.668Z,9.93
2022-12-22T19:32:05.611Z,10.17
2022-12-22T19:34:51.746Z,12.10
2022-12-22T19:37:18.918Z,15.00
2022-12-22T19:39:46.440Z,12.90
2022-12-22T19:42:20.783Z,9.43
2022-12-22T19:44:47.910Z,8.33
2022-12-22T19:47:20.290Z,3.33
2022-12-22T19:50:26.599Z,2.07
2022-12-22T19:52:55.033Z,1.70
2022-12-22T19:55:43.369Z,2.20
2022-12-22T19:58:37.821Z,1.73
2022-12-22T20:01:23.795Z,2.03
2022-12-22T20:03:50.707Z,7.90
2022-12-22T20:09:03.355Z,13.37
2022-12-22T20:11:48.791Z,15.20
2022-12-22T20:14:53.565Z,17.33
2022-12-22T20:17:21.032Z,19.88
2022-12-22T20:19:48.362Z,22.17
2022-12-22T20:22:20.892Z,5.57
2022-12-22T20:24:49.585Z,13.27
2022-12-22T20:27:28.524Z,6.17
2022-12-22T20:33:24.080Z,11.53
2022-12-22T20:36:12.489Z,5.03
2022-12-22T20:38:42.079Z,10.33
2022-12-22T20:41:10.550Z,12.87
2022-12-22T20:49:45.914Z,2.63
2022-12-22T20:52:17.588Z,1.93
2022-12-22T20:54:46.377Z,1.73
2022-12-22T20:57:14.730Z,1.80
2022-12-22T21:00:01.469Z,2.33
2022-12-22T21:02:30.026Z,3.00
2022-12-22T21:08:01.141Z,4.93
2022-12-22T21:10:27.969Z,5.47
2022-12-22T21:12:55.121Z,10.50
2022-12-22T21:15:28.225Z,6.73
2022-12-22T21:18:22.792Z,3.23
2022-12-22T21:21:11.257Z,1.97
2022-12-22T21:27:20.486Z,1.83
2022-12-22T21:29:47.667Z,2.23
2022-12-22T21:32:15.528Z,1.97
2022-12-22T21:37:47.836Z,1.47
2022-12-22T21:40:45.391Z,1.23
2022-12-22T21:43:31.373Z,1.90
2022-12-22T21:45:58.209Z,1.30
2022-12-22T21:48:25.011Z,1.00
2022-12-22T21:51:10.572Z,0.97
2022-12-22T21:53:37.396Z,0.97
2022-12-22T21:56:12.941Z,1.30
2022-12-22T21:58:39.755Z,0.87
2022-12-22T22:01:45.420Z,1.00
2022-12-22T22:04:12.770Z,0.97
2022-12-22T22:06:58.505Z,1.07
2022-12-22T22:12:33.235Z,1.80
2022-12-22T22:18:07.897Z,0.77
2022-12-22T22:20:35.544Z,0.53
2022-12-22T22:23:02.336Z,0.70
2022-12-22T22:25:29.158Z,0.70
2022-12-22T22:27:59.834Z,1.00
2022-12-22T22:30:27.570Z,0.63
2022-12-22T22:32:55.455Z,0.60
2022-12-22T22:35:24.094Z,0.60
2022-12-22T22:37:51.575Z,0.60
2022-12-22T22:40:36.738Z,0.93
2022-12-22T22:43:03.970Z,1.00
2022-12-22T22:45:30.837Z,1.40
2022-12-22T22:47:57.670Z,1.43
2022-12-22T22:50:24.695Z,1.07
2022-12-22T22:53:09.822Z,1.00
2022-12-22T22:55:36.589Z,0.77
2022-12-22T22:58:03.444Z,1.33
2022-12-22T23:00:30.367Z,1.50
2022-12-22T23:02:57.162Z,1.87
2022-12-22T23:05:24.086Z,3.30
2022-12-22T23:07:50.825Z,1.97
2022-12-22T23:10:17.729Z,1.53
2022-12-22T23:12:44.467Z,1.20
2022-12-22T23:15:11.405Z,2.03
2022-12-22T23:17:38.124Z,1.50
2022-12-22T23:20:05.605Z,1.23
2022-12-22T23:22:33.374Z,1.00
2022-12-22T23:25:00.160Z,1.20
2022-12-22T23:27:26.973Z,1.30
2022-12-22T23:29:53.709Z,1.43
2022-12-22T23:35:23.098Z,1.70
2022-12-22T23:37:49.858Z,1.63
2022-12-22T23:40:50.318Z,1.23
2022-12-22T23:43:22.528Z,1.03
2022-12-22T23:46:08.881Z,1.00
2022-12-22T23:51:23.422Z,0.87
2022-12-22T23:53:50.163Z,1.67
2022-12-22T23:56:17.007Z,1.13
2022-12-22T23:58:44.770Z,2.37
